Alsace — PB4786 — position and weather

sailwx.info

Track history (hours):
 
Tides and Currents Weather Stations Pressure Air Temp Water Temp Dewpoint Dewpoint Depression Visibility Wind Speed Wind Dir Waves Ship Positions

Alsace

Last reported at 2017-Feb-25 19:03 UTC. Time now 2017-Feb-28 07:49 UTC.
Position N 50°40' E 007°11'.

Length 178 m; draft 1.8 m.

Type: Ship. MMSI: 244660556.

Date/timePositionNaut miles runAvg speedWind from/ knotsBaromVisibWave heightAir tempDewpointWater temp
2017-Feb-25 19:03N 50°40' E 007°11'3 5.6
2017-Feb-25 18:29N 50°43' E 007°09'6 5.6
2017-Feb-25 17:28N 50°47' E 007°02'4 4.2
2017-Feb-25 16:24N 50°51' E 007°00'2 2.9
2017-Feb-25 15:32N 50°54' E 007°00'17 3.2
2017-Feb-25 10:22N 51°09' E 006°48'3 3.9
2017-Feb-25 09:33N 51°11' E 006°45'3 2.9
2017-Feb-25 08:33N 51°14' E 006°46'9 4.4
2017-Feb-25 06:32N 51°22' E 006°39'5 4.7
2017-Feb-25 05:33N 51°25' E 006°44'5 4.6
2017-Feb-25 04:34N 51°29' E 006°41'4 4.1
2017-Feb-25 03:34N 51°34' E 006°41'4 4.1
2017-Feb-25 02:29N 51°36' E 006°36'4 4.0
2017-Feb-25 01:33N 51°39' E 006°32'6 5.4
2017-Feb-25 00:31N 51°43' E 006°25'4 4.5
2017-Feb-24 23:33N 51°46' E 006°20'6 5.9
2017-Feb-24 22:33N 51°50' E 006°13'6 6.2
2017-Feb-24 21:33N 51°52' E 006°04'5 5.2
2017-Feb-24 20:33N 51°52' E 005°55'6 5.6
2017-Feb-24 19:33N 51°53' E 005°46'33 6.5
2017-Feb-24 14:33N 51°49' E 004°54'9 9.2
2017-Feb-24 13:33N 51°48' E 004°39'9 8.9
2017-Feb-24 12:33N 51°51' E 004°25'8 7.6
2017-Feb-24 11:33N 51°53' E 004°14'6 6.5
2017-Feb-24 10:33N 51°57' E 004°05'0 0.2
2017-Feb-24 09:33N 51°57' E 004°05'0 0.0
2017-Feb-24 08:33N 51°57' E 004°05'2 1.6
2017-Feb-24 07:34N 51°58' E 004°03'1 0.8
2017-Feb-24 06:33N 51°59' E 004°02'1 1.1
2017-Feb-24 05:33N 51°58' E 003°60'1 0.8
2017-Feb-24 04:33N 51°57' E 004°01'0 0.0
2017-Feb-24 03:33N 51°57' E 004°01'0 0.0
2017-Feb-24 02:33N 51°57' E 004°01'0 0.0
2017-Feb-24 01:33N 51°57' E 004°01'0 0.0
2017-Feb-24 00:34N 51°57' E 004°01'0 0.0
2017-Feb-23 23:34N 51°57' E 004°01'0 0.0
2017-Feb-23 22:34N 51°57' E 004°01'0 0.0
2017-Feb-23 21:33N 51°57' E 004°01'0 0.0
2017-Feb-23 20:33N 51°57' E 004°01'0 0.0
2017-Feb-23 19:34N 51°57' E 004°01'0 0.0
2017-Feb-23 18:34N 51°57' E 004°01'0 0.0
2017-Feb-23 17:34N 51°57' E 004°01'0 0.0
2017-Feb-23 16:33N 51°57' E 004°01'0 0.0
2017-Feb-23 15:33N 51°57' E 004°01'0 0.0
2017-Feb-23 14:34N 51°57' E 004°01'0 0.0
2017-Feb-23 13:33N 51°57' E 004°01'0 0.0
2017-Feb-23 12:34N 51°57' E 004°01'0 0.0
2017-Feb-23 11:34N 51°57' E 004°01'0 0.0
2017-Feb-23 10:33N 51°57' E 004°01'0 0.0
2017-Feb-23 09:33N 51°57' E 004°01'0 0.0
2017-Feb-23 08:33N 51°57' E 004°01'1 1.2
2017-Feb-23 07:33N 51°59' E 004°01'3 2.8
2017-Feb-23 06:33N 51°57' E 004°05'10 9.7
2017-Feb-23 05:33N 51°52' E 004°18'1010.3
2017-Feb-23 04:33N 51°49' E 004°34'7 6.8
2017-Feb-23 03:33N 51°42' E 004°33'15 7.3
2017-Feb-23 01:32N 51°36' E 004°11'9 8.6
2017-Feb-23 00:27N 51°27' E 004°14'5 5.7
2017-Feb-22 23:33N 51°22' E 004°18'2 1.6
2017-Feb-22 22:28N 51°21' E 004°17'1 1.5
2017-Feb-22 21:33N 51°20' E 004°17'3 2.7
2017-Feb-22 20:33N 51°17' E 004°15'0 0.3
2017-Feb-22 19:33N 51°17' E 004°15'0 0.0
2017-Feb-22 18:33N 51°17' E 004°15'3 2.9
2017-Feb-22 17:33N 51°17' E 004°20'1 0.8
2017-Feb-22 16:33N 51°16' E 004°21'0 0.0
2017-Feb-22 15:33N 51°16' E 004°21'0 0.0
2017-Feb-22 14:33N 51°16' E 004°21'2 2.1
2017-Feb-22 13:33N 51°15' E 004°24'1 0.9
2017-Feb-22 12:33N 51°16' E 004°24'2 1.8
2017-Feb-22 11:33N 51°17' E 004°22'0 0.1
2017-Feb-22 10:33N 51°17' E 004°22'0 0.0
2017-Feb-22 09:33N 51°17' E 004°22'1 1.4
2017-Feb-22 08:33N 51°17' E 004°20'3 3.0
2017-Feb-22 07:33N 51°17' E 004°15'0 0.1
2017-Feb-22 06:33N 51°17' E 004°15'1 1.0
2017-Feb-22 05:33N 51°18' E 004°16'0 0.0
2017-Feb-22 04:33N 51°18' E 004°16'0 0.0
2017-Feb-22 03:33N 51°18' E 004°16'0 0.1
2017-Feb-22 02:33N 51°18' E 004°16'0 0.0
2017-Feb-22 01:33N 51°18' E 004°16'0 0.0
2017-Feb-22 00:32N 51°18' E 004°16'0 0.0
2017-Feb-21 23:33N 51°18' E 004°16'0 0.3
2017-Feb-21 22:32N 51°18' E 004°16'0 0.0
2017-Feb-21 21:33N 51°18' E 004°16'0 0.0
2017-Feb-21 20:32N 51°18' E 004°16'0 0.0
2017-Feb-21 19:33N 51°18' E 004°16'3 2.9
2017-Feb-21 18:33N 51°21' E 004°16'0 0.0
2017-Feb-21 17:33N 51°21' E 004°16'1 0.6
2017-Feb-21 16:33N 51°20' E 004°16'0 0.0
2017-Feb-21 15:34N 51°20' E 004°16'1 0.6
2017-Feb-21 14:33N 51°20' E 004°17'3 3.2
2017-Feb-21 13:33N 51°17' E 004°15'0 0.0
2017-Feb-21 12:33N 51°17' E 004°15'0 0.0
2017-Feb-21 11:33N 51°17' E 004°15'0 0.0
2017-Feb-21 10:33N 51°17' E 004°15'1 1.2
2017-Feb-21 09:33N 51°18' E 004°16'6 5.9
2017-Feb-21 08:32N 51°23' E 004°13'7 7.3
2017-Feb-21 07:33N 51°25' E 004°02'3 3.4
2017-Feb-21 06:33N 51°29' E 004°00'8 7.3
2017-Feb-21 05:32N 51°36' E 003°59'14 5.7
2017-Feb-21 03:07N 51°40' E 004°20'3 5.5
2017-Feb-21 02:33N 51°41' E 004°25'6 6.1
2017-Feb-21 01:33N 51°42' E 004°34'7 6.5
2017-Feb-21 00:34N 51°49' E 004°34'8 8.5
2017-Feb-20 23:34N 51°51' E 004°21'5 5.1
2017-Feb-20 22:33N 51°54' E 004°14'6 6.3
2017-Feb-20 21:33N 51°58' E 004°06'2 1.7
2017-Feb-20 20:33N 51°57' E 004°04'0 0.3
2017-Feb-20 19:33N 51°57' E 004°05'2 1.7
2017-Feb-20 18:33N 51°58' E 004°03'2 1.8
2017-Feb-20 17:33N 51°57' E 004°02'0 0.2
2017-Feb-20 16:33N 51°57' E 004°02'0 0.0
2017-Feb-20 15:33N 51°57' E 004°02'0 0.0
2017-Feb-20 14:32N 51°57' E 004°02'0 0.0
2017-Feb-20 13:33N 51°57' E 004°02'0 0.0
2017-Feb-20 12:33N 51°57' E 004°02'0 0.1
2017-Feb-20 11:33N 51°57' E 004°02'2 1.6
2017-Feb-20 10:33N 51°57' E 004°05'8 7.7
2017-Feb-20 09:33N 51°52' E 004°15'7 7.0
2017-Feb-20 08:33N 51°50' E 004°26'7 7.4
2017-Feb-20 07:34N 51°48' E 004°37'8 8.0
2017-Feb-20 06:33N 51°49' E 004°50'10 8.5
2017-Feb-20 05:18N 51°49' E 005°07'7 8.9
2017-Feb-20 04:33N 51°49' E 005°18'7 7.3
2017-Feb-20 03:33N 51°53' E 005°28'9 9.3
2017-Feb-20 02:33N 51°53' E 005°43'8 8.3
2017-Feb-20 01:33N 51°52' E 005°56'8 8.0
2017-Feb-20 00:33N 51°51' E 006°09'9 9.4
2017-Feb-19 23:33N 51°45' E 006°21'8 8.0
2017-Feb-19 22:33N 51°40' E 006°30'9 7.1
2017-Feb-19 21:20N 51°34' E 006°41'20 7.3
2017-Feb-19 18:33N 51°14' E 006°46'19 6.2
2017-Feb-19 15:31N 50°57' E 006°59'117 6.1
2017-Feb-18 20:09N 49°13' E 008°23'100 3.6
2017-Feb-17 16:29N 47°39' E 007°32'3 3.3
2017-Feb-17 15:33N 47°37' E 007°35'2 0.4
2017-Feb-17 11:12N 47°35' E 007°35'0 0.0
2017-Feb-17 06:32N 47°35' E 007°35'0 0.0
2017-Feb-16 11:21N 47°35' E 007°35'  
Track history (hours):
 
Tides and Currents Weather Stations Pressure Air Temp Water Temp Dewpoint Dewpoint Depression Visibility Wind Speed Wind Dir Waves Ship Positions

Alsace

Last reported at 2017-Feb-25 19:03 UTC. Time now 2017-Feb-28 07:49 UTC.
Position N 50°40' E 007°11'.

Length 178 m; draft 1.8 m.

Type: Ship. MMSI: 244660556.

Date/timePositionNaut miles runAvg speedWind from/ knotsBaromVisibWave heightAir tempDewpointWater temp
2017-Feb-25 19:03N 50°40' E 007°11'3 5.6
2017-Feb-25 18:29N 50°43' E 007°09'6 5.6
2017-Feb-25 17:28N 50°47' E 007°02'4 4.2
2017-Feb-25 16:24N 50°51' E 007°00'2 2.9
2017-Feb-25 15:32N 50°54' E 007°00'17 3.2
2017-Feb-25 10:22N 51°09' E 006°48'3 3.9
2017-Feb-25 09:33N 51°11' E 006°45'3 2.9
2017-Feb-25 08:33N 51°14' E 006°46'9 4.4
2017-Feb-25 06:32N 51°22' E 006°39'5 4.7
2017-Feb-25 05:33N 51°25' E 006°44'5 4.6
2017-Feb-25 04:34N 51°29' E 006°41'4 4.1
2017-Feb-25 03:34N 51°34' E 006°41'4 4.1
2017-Feb-25 02:29N 51°36' E 006°36'4 4.0
2017-Feb-25 01:33N 51°39' E 006°32'6 5.4
2017-Feb-25 00:31N 51°43' E 006°25'4 4.5
2017-Feb-24 23:33N 51°46' E 006°20'6 5.9
2017-Feb-24 22:33N 51°50' E 006°13'6 6.2
2017-Feb-24 21:33N 51°52' E 006°04'5 5.2
2017-Feb-24 20:33N 51°52' E 005°55'6 5.6
2017-Feb-24 19:33N 51°53' E 005°46'33 6.5
2017-Feb-24 14:33N 51°49' E 004°54'9 9.2
2017-Feb-24 13:33N 51°48' E 004°39'9 8.9
2017-Feb-24 12:33N 51°51' E 004°25'8 7.6
2017-Feb-24 11:33N 51°53' E 004°14'6 6.5
2017-Feb-24 10:33N 51°57' E 004°05'0 0.2
2017-Feb-24 09:33N 51°57' E 004°05'0 0.0
2017-Feb-24 08:33N 51°57' E 004°05'2 1.6
2017-Feb-24 07:34N 51°58' E 004°03'1 0.8
2017-Feb-24 06:33N 51°59' E 004°02'1 1.1
2017-Feb-24 05:33N 51°58' E 003°60'1 0.8
2017-Feb-24 04:33N 51°57' E 004°01'0 0.0
2017-Feb-24 03:33N 51°57' E 004°01'0 0.0
2017-Feb-24 02:33N 51°57' E 004°01'0 0.0
2017-Feb-24 01:33N 51°57' E 004°01'0 0.0
2017-Feb-24 00:34N 51°57' E 004°01'0 0.0
2017-Feb-23 23:34N 51°57' E 004°01'0 0.0
2017-Feb-23 22:34N 51°57' E 004°01'0 0.0
2017-Feb-23 21:33N 51°57' E 004°01'0 0.0
2017-Feb-23 20:33N 51°57' E 004°01'0 0.0
2017-Feb-23 19:34N 51°57' E 004°01'0 0.0
2017-Feb-23 18:34N 51°57' E 004°01'0 0.0
2017-Feb-23 17:34N 51°57' E 004°01'0 0.0
2017-Feb-23 16:33N 51°57' E 004°01'0 0.0
2017-Feb-23 15:33N 51°57' E 004°01'0 0.0
2017-Feb-23 14:34N 51°57' E 004°01'0 0.0
2017-Feb-23 13:33N 51°57' E 004°01'0 0.0
2017-Feb-23 12:34N 51°57' E 004°01'0 0.0
2017-Feb-23 11:34N 51°57' E 004°01'0 0.0
2017-Feb-23 10:33N 51°57' E 004°01'0 0.0
2017-Feb-23 09:33N 51°57' E 004°01'0 0.0
2017-Feb-23 08:33N 51°57' E 004°01'1 1.2
2017-Feb-23 07:33N 51°59' E 004°01'3 2.8
2017-Feb-23 06:33N 51°57' E 004°05'10 9.7
2017-Feb-23 05:33N 51°52' E 004°18'1010.3
2017-Feb-23 04:33N 51°49' E 004°34'7 6.8
2017-Feb-23 03:33N 51°42' E 004°33'15 7.3
2017-Feb-23 01:32N 51°36' E 004°11'9 8.6
2017-Feb-23 00:27N 51°27' E 004°14'5 5.7
2017-Feb-22 23:33N 51°22' E 004°18'2 1.6
2017-Feb-22 22:28N 51°21' E 004°17'1 1.5
2017-Feb-22 21:33N 51°20' E 004°17'3 2.7
2017-Feb-22 20:33N 51°17' E 004°15'0 0.3
2017-Feb-22 19:33N 51°17' E 004°15'0 0.0
2017-Feb-22 18:33N 51°17' E 004°15'3 2.9
2017-Feb-22 17:33N 51°17' E 004°20'1 0.8
2017-Feb-22 16:33N 51°16' E 004°21'0 0.0
2017-Feb-22 15:33N 51°16' E 004°21'0 0.0
2017-Feb-22 14:33N 51°16' E 004°21'2 2.1
2017-Feb-22 13:33N 51°15' E 004°24'1 0.9
2017-Feb-22 12:33N 51°16' E 004°24'2 1.8
2017-Feb-22 11:33N 51°17' E 004°22'0 0.1
2017-Feb-22 10:33N 51°17' E 004°22'0 0.0
2017-Feb-22 09:33N 51°17' E 004°22'1 1.4
2017-Feb-22 08:33N 51°17' E 004°20'3 3.0
2017-Feb-22 07:33N 51°17' E 004°15'0 0.1
2017-Feb-22 06:33N 51°17' E 004°15'1 1.0
2017-Feb-22 05:33N 51°18' E 004°16'0 0.0
2017-Feb-22 04:33N 51°18' E 004°16'0 0.0
2017-Feb-22 03:33N 51°18' E 004°16'0 0.1
2017-Feb-22 02:33N 51°18' E 004°16'0 0.0
2017-Feb-22 01:33N 51°18' E 004°16'0 0.0
2017-Feb-22 00:32N 51°18' E 004°16'0 0.0
2017-Feb-21 23:33N 51°18' E 004°16'0 0.3
2017-Feb-21 22:32N 51°18' E 004°16'0 0.0
2017-Feb-21 21:33N 51°18' E 004°16'0 0.0
2017-Feb-21 20:32N 51°18' E 004°16'0 0.0
2017-Feb-21 19:33N 51°18' E 004°16'3 2.9
2017-Feb-21 18:33N 51°21' E 004°16'0 0.0
2017-Feb-21 17:33N 51°21' E 004°16'1 0.6
2017-Feb-21 16:33N 51°20' E 004°16'0 0.0
2017-Feb-21 15:34N 51°20' E 004°16'1 0.6
2017-Feb-21 14:33N 51°20' E 004°17'3 3.2
2017-Feb-21 13:33N 51°17' E 004°15'0 0.0
2017-Feb-21 12:33N 51°17' E 004°15'0 0.0
2017-Feb-21 11:33N 51°17' E 004°15'0 0.0
2017-Feb-21 10:33N 51°17' E 004°15'1 1.2
2017-Feb-21 09:33N 51°18' E 004°16'6 5.9
2017-Feb-21 08:32N 51°23' E 004°13'7 7.3
2017-Feb-21 07:33N 51°25' E 004°02'3 3.4
2017-Feb-21 06:33N 51°29' E 004°00'8 7.3
2017-Feb-21 05:32N 51°36' E 003°59'14 5.7
2017-Feb-21 03:07N 51°40' E 004°20'3 5.5
2017-Feb-21 02:33N 51°41' E 004°25'6 6.1
2017-Feb-21 01:33N 51°42' E 004°34'7 6.5
2017-Feb-21 00:34N 51°49' E 004°34'8 8.5
2017-Feb-20 23:34N 51°51' E 004°21'5 5.1
2017-Feb-20 22:33N 51°54' E 004°14'6 6.3
2017-Feb-20 21:33N 51°58' E 004°06'2 1.7
2017-Feb-20 20:33N 51°57' E 004°04'0 0.3
2017-Feb-20 19:33N 51°57' E 004°05'2 1.7
2017-Feb-20 18:33N 51°58' E 004°03'2 1.8
2017-Feb-20 17:33N 51°57' E 004°02'0 0.2
2017-Feb-20 16:33N 51°57' E 004°02'0 0.0
2017-Feb-20 15:33N 51°57' E 004°02'0 0.0
2017-Feb-20 14:32N 51°57' E 004°02'0 0.0
2017-Feb-20 13:33N 51°57' E 004°02'0 0.0
2017-Feb-20 12:33N 51°57' E 004°02'0 0.1
2017-Feb-20 11:33N 51°57' E 004°02'2 1.6
2017-Feb-20 10:33N 51°57' E 004°05'8 7.7
2017-Feb-20 09:33N 51°52' E 004°15'7 7.0
2017-Feb-20 08:33N 51°50' E 004°26'7 7.4
2017-Feb-20 07:34N 51°48' E 004°37'8 8.0
2017-Feb-20 06:33N 51°49' E 004°50'10 8.5
2017-Feb-20 05:18N 51°49' E 005°07'7 8.9
2017-Feb-20 04:33N 51°49' E 005°18'7 7.3
2017-Feb-20 03:33N 51°53' E 005°28'9 9.3
2017-Feb-20 02:33N 51°53' E 005°43'8 8.3
2017-Feb-20 01:33N 51°52' E 005°56'8 8.0
2017-Feb-20 00:33N 51°51' E 006°09'9 9.4
2017-Feb-19 23:33N 51°45' E 006°21'8 8.0
2017-Feb-19 22:33N 51°40' E 006°30'9 7.1
2017-Feb-19 21:20N 51°34' E 006°41'20 7.3
2017-Feb-19 18:33N 51°14' E 006°46'19 6.2
2017-Feb-19 15:31N 50°57' E 006°59'117 6.1
2017-Feb-18 20:09N 49°13' E 008°23'100 3.6
2017-Feb-17 16:29N 47°39' E 007°32'3 3.3
2017-Feb-17 15:33N 47°37' E 007°35'2 0.4
2017-Feb-17 11:12N 47°35' E 007°35'0 0.0
2017-Feb-17 06:32N 47°35' E 007°35'0 0.0
2017-Feb-16 11:21N 47°35' E 007°35'  

Dump ship's entire track history